Hualapai Flat, Nevada Weather observations

Data are for 10 minute period ending at time listed.
 Day   Time   Solar   Ave.   Ave.  Ave.  Vector  Max.   Baro.   Total    
  of    of     Rad.   Air    Rel.  Wind   Wind   Wind  Press.  Precip.   
Year   Day            Temp.  Hum.  Speed  Dir.   Gust                    
2016   (PST)  Kw/m2    F      %     mph   deg.    mph    mb.     in.     
-------------------------------------------------------------------------
 180   13:30   0.89   93.9    10    5.8   312    14.2   877.6    0.00 
 180   13:40   0.86   93.5    10    6.4   286    15.7   877.6    0.00 
 180   13:50   0.86   93.9    12    4.0   135     8.8   877.6    0.00 
 180   14:00   0.84   95.3    10    5.1   161    12.1   877.5    0.00 
 180   14:10   0.83   94.9    13    7.4   180    13.4   877.3    0.00 
 180   14:20   0.81   94.8    14    5.4   196     9.2   877.2    0.00 
 180   14:30   0.79   95.3    11    3.2   224    11.7   877.1    0.00 
 180   14:40   0.76   95.7     9    3.4    81    15.4   877.0    0.00 
 180   14:50   0.74   95.6    11    4.1   198    10.1   876.9    0.00 
 180   15:00   0.72   96.4    11    5.4   210    17.9   876.8    0.00 
 180   15:10   0.67   94.6    13   11.1   245    21.3   876.8    0.00 
 180   15:20   0.67   93.8    11    8.6   259    14.0   876.7    0.00 
 180   15:30   0.64   94.2    10    6.5   259    11.5   876.5    0.00 
 180   15:40   0.61   94.5    12    5.9   220    12.9   876.5    0.00 
 180   15:50   0.59   94.8    12    7.7   181    20.0   876.3    0.00 
 180   16:00   0.54   94.3    15    8.9   206    18.0   876.2    0.00 
 180   16:10   0.52   92.9    12    8.1   178    17.6   876.1    0.00 
 180   16:20   0.50   94.2    13    5.7   216    11.3   875.9    0.00 
 180   16:30   0.47   94.3    16    4.3   214    11.0   875.9    0.00 
 180   16:40   0.43   93.4    11   11.5   258    20.5   875.8    0.00 
 180   16:50   0.40   92.5    10   12.3   259    17.1   875.8    0.00 
 180   17:00   0.37   93.0    10    8.1   260    14.5   875.8    0.00 
 180   17:10   0.34   93.1    10    9.2   258    17.0   875.7    0.00 
 180   17:20   0.31   92.1    10   11.6   248    17.2   875.6    0.00 
 180   17:30   0.25   92.0    11    8.9   246    17.2   875.6    0.00 
 180   17:40   0.23   91.7     9   12.2   240    17.6   875.6    0.00 
 180   17:50   0.20   90.8    10   12.1   224    18.5   875.7    0.00 
 180   18:00   0.19   90.2    10   11.3   230    18.5   875.7    0.00 
 180   18:10   0.17   90.3     9   12.9   234    20.3   875.7    0.00 
 180   18:20   0.14   89.2    10   12.0   224    17.6   875.8    0.00 
 180   18:30   0.11   88.8    10   11.6   234    16.2   875.8    0.00 
 180   18:40   0.09   88.6    10   11.0   244    15.5   875.8    0.00 
 180   18:50   0.06   88.5    10    9.9   243    14.0   875.8    0.00 
 180   19:00   0.06   88.2    10    8.6   251    11.2   875.9    0.00 
 180   19:10   0.03   86.9    11    7.8   246    11.3   875.9    0.00 
 180   19:20   0.01   84.4    11    7.2   253     8.9   876.0    0.00 
 180   19:30   0.01   83.0    12    7.2   251     8.3   876.0    0.00 
 180   19:40   0.01   81.4    12    7.0   254     7.8   876.0    0.00 
 180   19:50   0.00   80.1    12    7.5   270     8.5   876.0    0.00 
 180   20:00   0.00   79.0    12    7.3   281     8.4   876.0    0.00 
 180   20:10   0.00   78.6    13    7.1   298     8.0   876.1    0.00 
 180   20:20   0.00   76.8    14    6.8   303     7.6   876.3    0.00 
 180   20:30   0.00   78.0    14    6.8   298     7.9   876.4    0.00 
 180   20:40   0.00   78.9    14    7.1   274    11.0   876.6    0.00 
 180   20:50   0.00   81.2    14    7.4   296    11.2   876.9    0.00 
 180   21:00   0.00   80.0    15    7.3   302    10.2   877.0    0.00 
 180   21:10   0.00   79.1    15    8.1   306     9.6   877.1    0.00 
 180   21:20   0.00   79.8    14    7.7   291    10.3   877.1    0.00 
 180   21:30   0.00   78.4    14    7.2   294     8.8   877.2    0.00 
 180   21:40   0.00   77.2    14    8.7   297    10.5   877.3    0.00 
 180   21:50   0.00   78.4    16    9.6   296    13.1   877.2    0.00 
 180   22:00   0.00   78.0    17    8.4   304    10.4   877.2    0.00 
 180   22:10   0.00   77.9    18    7.1   318    11.6   877.3    0.00 
 180   22:20   0.00   77.0    19    4.2   347     6.9   877.5    0.00 
 180   22:30   0.00   75.6    20    4.4     4     8.4   877.6    0.00 
 180   22:40   0.00   74.0    24    8.5   346    10.6   877.7    0.00 
 180   22:50   0.00   77.2    20    9.6   295    16.8   877.6    0.00 
 180   23:00   0.00   79.3    18   10.7   290    15.5   877.6    0.00 
 180   23:10   0.00   78.5    18   10.0   290    14.4   877.5    0.00 
 180   23:20   0.00   77.8    19    9.1   282    14.2   877.5    0.00 
 180   23:30   0.00   77.4    19    8.4   280    12.1   877.4    0.00 
 180   23:40   0.00   76.7    20    8.2   273    11.9   877.4    0.00 
 180   23:50   0.00   76.5    20    8.9   279    13.2   877.4    0.00 
 181    0:00   0.00   75.2    20    7.3   293     9.9   877.4    0.00 
 181    0:10   0.00   73.8    21    7.8   292    12.4   877.4    0.00 
 181    0:20   0.00   76.2    20   10.2   276    13.2   877.3    0.00 
 181    0:30   0.00   74.8    20    8.4   294    12.3   877.3    0.00 
 181    0:40   0.00   72.4    22    7.3   296     8.6   877.3    0.00 
 181    0:50   0.00   71.7    23    6.7   304     8.9   877.3    0.00 
 181    1:00   0.00   71.9    23    6.9   306     7.8   877.4    0.00 
 181    1:10   0.00   71.2    24    6.5   280     7.6   877.4    0.00 
 181    1:20   0.00   70.5    24    7.0   276     7.7   877.4    0.00 
 181    1:30   0.00   71.9    22    6.6   285     8.3   877.3    0.00 
 181    1:40   0.00   69.9    24    6.3   296     7.3   877.3    0.00 
 181    1:50   0.00   73.0    22    7.7   302    10.9   877.3    0.00 
 181    2:00   0.00   73.8    22    7.2   309     8.5   877.3    0.00 
 181    2:10   0.00   71.5    22    8.2   308    11.2   877.3    0.00 
 181    2:20   0.00   73.2    21    9.4   310    11.8   877.1    0.00 
 181    2:30   0.00   71.0    23    7.4   313    10.6   877.2    0.00 
 181    2:40   0.00   70.9    24    6.1   321     7.5   877.3    0.00 
 181    2:50   0.00   69.3    22    4.8   292     7.7   877.3    0.00 
 181    3:00   0.00   68.1    24    7.4   285     9.3   877.3    0.00 
 181    3:10   0.00   68.2    25    6.8   293     8.8   877.3    0.00 
 181    3:20   0.00   69.9    24    7.8   303    10.2   877.2    0.00 
 181    3:30   0.00   71.0    23    8.7   299    11.8   877.3    0.00 
 181    3:40   0.00   71.7    22    7.5   297    11.0   877.4    0.00 
 181    3:50   0.00   67.9    25    6.6   296     8.3   877.4    0.00 
 181    4:00   0.00   64.0    28    6.7   292     8.7   877.5    0.00 
 181    4:10   0.00   62.9    28    7.3   291     8.9   877.6    0.00 
 181    4:20   0.00   62.4    29    7.0   297     8.1   877.6    0.00 
 181    4:30   0.00   66.6    28    5.9   322     7.5   877.6    0.00 
 181    4:40   0.01   66.9    27    6.6   317     7.9   877.6    0.00 
 181    4:50   0.01   64.1    30    5.2   271     7.1   877.7    0.00 
 181    5:00   0.04   60.3    37    2.9   208     6.1   877.8    0.00 
 181    5:10   0.07   63.4    35    2.9   258     5.8   877.9    0.00 
 181    5:20   0.10   62.2    40    4.1   202     5.8   878.0    0.00 
 181    5:30   0.11   63.7    41    3.8   187     5.1   878.0    0.00 
 181    5:40   0.15   65.0    43    3.6   192     4.5   878.0    0.00 
 181    5:50   0.13   68.2    40    3.2   203     4.2   878.1    0.00 
 181    6:00   0.13   71.1    40    1.6   189     3.0   878.2    0.00 
 181    6:10   0.27   74.8    35    0.8   203     2.5   878.2    0.00 
 181    6:20   0.31   73.5    33    3.5   215     4.5   878.2    0.00 
 181    6:30   0.15   73.2    30    1.8    90     4.5   878.2    0.00 
 181    6:40   0.25   75.2    32    0.2   254     1.1   878.2    0.00 
 181    6:50   0.29   78.0    31    0.0     0     0.0   878.2    0.00 
 181    7:00   0.25   79.2    25    0.0     0     0.0   878.2    0.00 
 181    7:10   0.39   79.2    23    0.3    30     1.4   878.2    0.00 
 181    7:20   0.39   80.3    20    0.9    26     2.1   878.1    0.00 
 181    7:30   0.25   80.4    19    0.5   260     1.3   878.1    0.00 
 181    7:40   0.22   80.2    26    0.1   238     0.7   878.1    0.00 
 181    7:50   0.47   81.1    25    0.5   184     2.2   877.9    0.00 
 181    8:00   0.14   81.3    23    3.4   119     5.9   877.9    0.00 
 181    8:10   0.43   79.5    26    3.9   128     6.4   877.8    0.00 
 181    8:20   0.23   81.5    22    3.2   146     5.1   877.7    0.00 
 181    8:30   0.23   81.2    27    3.3   152     4.6   877.7    0.00 
 181    8:40   0.41   80.4    25    3.4   143     5.1   877.7    0.00 
 181    8:50   0.33   82.2    29    2.9   182     4.0   877.7    0.00 
 181    9:00   0.49   84.0    29    3.0   182     4.4   877.6    0.00 
 181    9:10   0.38   86.9    21    3.8   191     5.5   877.5    0.00 
 181    9:20   0.30   88.4    22    3.1   213     6.0   877.4    0.00 
 181    9:30   0.80   88.9    20    3.5   203     6.2   877.3    0.00 
 181    9:40   0.78   89.1    18    3.2   163     8.2   877.3    0.00 
 181    9:50   0.64   89.3    16    2.6   153     8.4   877.2    0.00 
 181   10:00   0.67   87.8    18    3.2   164     7.4   877.2    0.00 
 181   10:10   0.87   89.3    16    4.1   154     8.5   877.2    0.00 
 181   10:20   0.89   88.4    16    3.9   112     9.9   877.2    0.00 
 181   10:30   0.89   88.6    14    2.6   152     8.1   877.1    0.00 
 181   10:40   0.92   90.5    14    2.8   120     7.4   877.0    0.00 
 181   10:50   0.94   90.2    13    4.7   126    10.2   877.0    0.00 
 181   11:00   0.95   89.2    14    5.3   110    10.1   877.0    0.00 
 181   11:10   0.96   90.4    14    4.3   125     8.3   876.8    0.00 
 181   11:20   0.34   91.2    12    2.9   143     6.4   876.7    0.00 
 181   11:30   0.28   93.0    12    5.0   210    10.4   876.6    0.00 
 181   11:40   0.80   92.4    12    3.3   210     7.5   876.6    0.00 
 181   11:50   0.90   94.3    13    3.7   172     6.8   876.5    0.00 
 181   12:00   0.01   92.6    11    5.5   281    12.3   876.4    0.00 
 181   12:10   0.72   92.3    11    7.7   280    14.6   876.2    0.00 
 181   12:20   0.55   90.5    11    6.7   281    12.9   876.2    0.00 
 181   12:30   0.85   91.2    11    8.1   264    12.9   876.2    0.00 
 181   12:40   0.96   92.4    12    7.0   231    16.8   876.0    0.00 
 181   12:50   0.61   92.7    12    6.6   223    13.6   875.9    0.00 
 181   13:00   0.81   92.2    12    8.4   201    15.7   875.9    0.00 
 181   13:10   0.88   92.4    12   12.3   225    22.6   875.8    0.00 
 181   13:20   0.99   93.2    12    9.7   213    18.5   875.7    0.00 

Return to Hualapai Flat graphs page.


Western Regional Climate Center,wrcc@dri.edu